createdAt,value
2023-03-21T00:03:10.063Z,6.20
2023-03-21T00:08:13.284Z,6.20
2023-03-21T00:13:24.831Z,6.20
2023-03-21T00:18:29.596Z,6.40
2023-03-21T00:23:34.403Z,6.60
2023-03-21T00:28:38.072Z,6.60
2023-03-21T00:33:42.708Z,6.70
2023-03-21T00:38:46.063Z,6.70
2023-03-21T00:43:49.289Z,6.70
2023-03-21T00:48:53.938Z,6.70
2023-03-21T00:53:58.705Z,6.70
2023-03-21T00:59:01.872Z,6.60
2023-03-21T01:04:11.149Z,6.60
2023-03-21T01:09:16.987Z,6.80
2023-03-21T01:14:23.915Z,6.80
2023-03-21T01:19:41.050Z,6.80
2023-03-21T01:24:56.978Z,6.80
2023-03-21T01:30:06.260Z,6.80
2023-03-21T01:35:14.329Z,6.80
2023-03-21T01:40:19.473Z,6.80
2023-03-21T01:46:00.270Z,6.80
2023-03-21T01:51:05.733Z,6.80
2023-03-21T01:56:13.466Z,6.80
2023-03-21T02:01:17.093Z,6.80
2023-03-21T02:06:36.848Z,6.90
2023-03-21T02:11:40.733Z,6.90
2023-03-21T02:16:53.535Z,6.90
2023-03-21T02:22:27.529Z,6.80
2023-03-21T02:27:36.173Z,6.80
2023-03-21T02:32:58.362Z,6.80
2023-03-21T02:38:09.050Z,6.90
2023-03-21T02:43:22.880Z,6.90
2023-03-21T02:48:44.529Z,6.90
2023-03-21T02:54:26.053Z,6.80
2023-03-21T02:59:25.872Z,6.80
2023-03-21T03:04:31.227Z,6.70
2023-03-21T03:09:44.962Z,6.70
2023-03-21T03:15:02.988Z,6.60
2023-03-21T03:20:18.573Z,6.70
2023-03-21T03:25:41.485Z,6.60
2023-03-21T03:31:01.176Z,6.40
2023-03-21T03:36:30.568Z,6.30
2023-03-21T03:42:07.489Z,6.20
2023-03-21T03:47:10.565Z,6.30
2023-03-21T03:52:21.232Z,6.20
2023-03-21T03:57:27.520Z,6.10
2023-03-21T04:02:32.323Z,6.00
2023-03-21T04:07:35.755Z,5.70
2023-03-21T04:12:40.505Z,5.50
2023-03-21T04:17:46.413Z,5.20
2023-03-21T04:22:49.832Z,5.00
2023-03-21T04:27:55.816Z,4.90
2023-03-21T04:33:01.385Z,4.70
2023-03-21T04:38:05.256Z,4.60
2023-03-21T04:43:09.898Z,4.60
2023-03-21T04:48:14.579Z,4.60
2023-03-21T04:53:17.922Z,4.50
2023-03-21T04:58:22.832Z,4.30
2023-03-21T05:03:28.761Z,4.20
2023-03-21T05:08:32.094Z,4.30
2023-03-21T05:13:37.284Z,4.50
2023-03-21T05:18:40.696Z,4.60
2023-03-21T05:23:43.975Z,4.80
2023-03-21T05:28:49.180Z,4.90
2023-03-21T05:33:53.318Z,5.00
2023-03-21T05:38:56.621Z,5.20
2023-03-21T05:44:01.803Z,5.30
2023-03-21T05:49:05.460Z,5.40
2023-03-21T05:54:08.792Z,5.50
2023-03-21T05:59:13.536Z,5.60
2023-03-21T06:04:17.087Z,5.60
2023-03-21T06:09:20.669Z,5.60
2023-03-21T06:14:26.892Z,5.80
2023-03-21T06:19:30.216Z,6.00
2023-03-21T06:24:33.930Z,6.20
2023-03-21T06:29:39.012Z,6.60
2023-03-21T06:34:44.224Z,7.20
2023-03-21T06:39:47.938Z,7.70
2023-03-21T06:44:52.720Z,8.00
2023-03-21T06:49:56.167Z,10.10
2023-03-21T06:54:59.502Z,12.80
2023-03-21T07:05:32.826Z,17.20
2023-03-21T07:10:40.409Z,17.50
2023-03-21T07:15:46.037Z,17.80
2023-03-21T07:20:53.711Z,17.80
2023-03-21T07:26:02.602Z,19.30
2023-03-21T07:31:09.436Z,19.60
2023-03-21T07:36:16.552Z,20.20
2023-03-21T07:41:19.872Z,20.50
2023-03-21T07:46:24.685Z,20.60
2023-03-21T07:51:29.759Z,21.70
2023-03-21T07:56:35.877Z,21.60
2023-03-21T08:12:36.573Z,24.40
2023-03-21T08:17:41.372Z,24.60
2023-03-21T08:22:47.444Z,23.00
2023-03-21T08:27:51.575Z,21.70
2023-03-21T08:33:01.771Z,20.00
2023-03-21T08:38:05.855Z,19.20
2023-03-21T08:43:09.540Z,21.60
2023-03-21T08:48:15.772Z,21.80
2023-03-21T08:53:19.145Z,21.90
2023-03-21T08:58:22.467Z,21.10
2023-03-21T09:03:27.478Z,21.50
2023-03-21T09:08:31.946Z,21.70
2023-03-21T09:13:36.892Z,22.30
2023-03-21T09:18:54.119Z,22.20
2023-03-21T09:24:00.117Z,22.90
2023-03-21T09:29:07.845Z,22.90
2023-03-21T09:34:12.666Z,22.20
2023-03-21T09:39:16.354Z,21.40
2023-03-21T09:44:33.040Z,22.30
2023-03-21T09:49:43.889Z,22.70
2023-03-21T09:54:47.756Z,22.40
2023-03-21T09:59:55.081Z,21.70
2023-03-21T10:05:00.410Z,21.10
2023-03-21T10:10:04.674Z,20.40
2023-03-21T10:15:16.657Z,19.80
2023-03-21T10:20:23.874Z,19.10
2023-03-21T10:25:37.714Z,18.80
2023-03-21T10:30:43.439Z,18.80
2023-03-21T10:35:52.380Z,18.60
2023-03-21T10:40:56.491Z,18.50
2023-03-21T10:46:01.647Z,18.30
2023-03-21T10:51:08.908Z,18.10
2023-03-21T10:56:13.437Z,18.30
2023-03-21T11:01:32.044Z,18.10
2023-03-21T11:06:40.759Z,18.20
2023-03-21T11:11:52.532Z,18.00
2023-03-21T11:22:28.361Z,17.70
2023-03-21T11:27:33.413Z,17.70
2023-03-21T11:32:38.811Z,17.70
2023-03-21T11:37:50.257Z,17.60
2023-03-21T11:42:55.252Z,17.40
2023-03-21T11:48:03.091Z,17.40
2023-03-21T11:53:22.382Z,17.30
2023-03-21T12:04:29.306Z,17.50
2023-03-21T12:09:41.249Z,17.40
2023-03-21T12:14:57.549Z,17.60
2023-03-21T12:20:27.639Z,17.80
2023-03-21T12:25:36.706Z,17.90
2023-03-21T12:30:52.545Z,17.70
2023-03-21T12:36:22.182Z,17.50
2023-03-21T12:41:34.182Z,17.20
2023-03-21T12:46:42.974Z,17.20
2023-03-21T12:51:55.783Z,17.10
2023-03-21T12:57:06.081Z,17.50
2023-03-21T13:02:21.468Z,18.10
2023-03-21T13:07:38.633Z,18.30
2023-03-21T13:13:07.318Z,18.90
2023-03-21T13:18:24.438Z,19.20
2023-03-21T13:23:41.088Z,19.10
2023-03-21T13:28:48.695Z,18.90
2023-03-21T13:33:53.440Z,18.60
2023-03-21T13:39:02.136Z,18.60
2023-03-21T13:44:22.510Z,18.90
2023-03-21T13:49:33.083Z,18.60
2023-03-21T13:54:53.177Z,18.70
2023-03-21T14:00:29.553Z,18.30
2023-03-21T14:05:35.558Z,18.20
2023-03-21T14:10:42.151Z,18.40
2023-03-21T14:15:55.617Z,17.90
2023-03-21T14:21:02.176Z,18.00
2023-03-21T14:26:07.302Z,17.90
2023-03-21T14:31:17.693Z,17.60
2023-03-21T14:36:25.780Z,17.70
2023-03-21T14:47:07.533Z,17.60
2023-03-21T14:52:14.723Z,17.60
2023-03-21T14:57:27.982Z,17.40
2023-03-21T15:02:36.863Z,17.20
2023-03-21T15:07:40.168Z,17.10
2023-03-21T15:12:52.571Z,17.00
2023-03-21T15:18:02.034Z,16.90
2023-03-21T15:23:09.934Z,16.90
2023-03-21T15:28:15.492Z,16.80
2023-03-21T15:33:21.809Z,16.80
2023-03-21T15:38:31.969Z,16.70
2023-03-21T15:43:41.919Z,16.50
2023-03-21T15:49:13.411Z,16.20
2023-03-21T15:54:24.689Z,15.80
2023-03-21T15:59:31.555Z,15.50
2023-03-21T16:04:57.718Z,15.40
2023-03-21T16:10:05.952Z,15.40
2023-03-21T16:15:10.244Z,15.30
2023-03-21T16:20:23.403Z,15.30
2023-03-21T16:25:27.092Z,15.30
2023-03-21T16:30:30.425Z,15.20
2023-03-21T16:35:45.864Z,15.00
2023-03-21T16:40:50.212Z,14.70
2023-03-21T16:45:53.635Z,14.50
2023-03-21T16:50:58.321Z,14.20
2023-03-21T16:56:03.062Z,14.10
2023-03-21T17:01:06.601Z,13.90
2023-03-21T17:06:15.610Z,13.80
2023-03-21T17:11:21.362Z,13.60
2023-03-21T17:16:28.921Z,13.40
2023-03-21T17:21:33.850Z,13.30
2023-03-21T17:26:37.762Z,13.20
2023-03-21T17:31:41.528Z,13.10
2023-03-21T17:36:47.543Z,13.00
2023-03-21T17:41:52.078Z,12.90
2023-03-21T17:46:56.549Z,12.50
2023-03-21T17:52:01.537Z,12.00
2023-03-21T17:57:04.872Z,11.60
2023-03-21T18:02:09.418Z,11.40
2023-03-21T18:07:32.515Z,11.30
2023-03-21T18:12:46.346Z,11.40
2023-03-21T18:17:49.984Z,11.40
2023-03-21T18:22:54.623Z,11.30
2023-03-21T18:28:10.571Z,11.30
2023-03-21T18:33:16.459Z,11.20
2023-03-21T18:38:21.611Z,11.10
2023-03-21T18:44:00.701Z,11.10
2023-03-21T18:48:51.870Z,11.10
2023-03-21T18:53:57.816Z,11.10
2023-03-21T18:59:01.677Z,11.10
2023-03-21T19:04:20.893Z,11.10
2023-03-21T19:09:31.630Z,11.10
2023-03-21T19:14:35.478Z,11.10
2023-03-21T19:19:39.550Z,11.10
2023-03-21T19:24:44.464Z,11.10
2023-03-21T19:30:02.986Z,11.10
2023-03-21T19:35:11.364Z,11.10
2023-03-21T19:40:16.212Z,11.20
2023-03-21T19:45:19.693Z,11.20
2023-03-21T19:50:49.233Z,11.10
2023-03-21T19:55:56.025Z,11.00
2023-03-21T20:00:59.439Z,11.00
2023-03-21T20:06:05.752Z,10.80
2023-03-21T20:11:10.600Z,10.70
2023-03-21T20:16:14.355Z,10.60
2023-03-21T20:21:22.482Z,10.90
2023-03-21T20:26:32.612Z,11.10
2023-03-21T20:31:36.066Z,11.00
2023-03-21T20:36:41.342Z,10.60
2023-03-21T20:41:48.950Z,10.40
2023-03-21T20:46:54.734Z,10.40
2023-03-21T20:57:25.697Z,10.20
2023-03-21T21:02:29.125Z,10.00
2023-03-21T21:07:32.374Z,9.80
2023-03-21T21:12:39.425Z,9.90
2023-03-21T21:23:09.544Z,10.20
2023-03-21T21:28:15.892Z,10.20
2023-03-21T21:33:20.975Z,10.10
2023-03-21T21:38:25.055Z,10.00
2023-03-21T21:43:30.062Z,9.90
2023-03-21T21:48:34.187Z,10.00
2023-03-21T21:53:41.432Z,10.00
2023-03-21T21:58:47.164Z,9.90
2023-03-21T22:04:06.244Z,9.80
2023-03-21T22:09:09.605Z,9.70
2023-03-21T22:14:14.266Z,9.60
2023-03-21T22:19:17.521Z,9.60
2023-03-21T22:24:21.438Z,9.60
2023-03-21T22:29:26.436Z,9.50
2023-03-21T22:34:29.765Z,9.50
2023-03-21T22:39:33.046Z,9.40
2023-03-21T22:44:47.689Z,9.50
2023-03-21T22:49:54.895Z,9.30
2023-03-21T22:54:58.178Z,9.30
2023-03-21T23:00:08.340Z,9.40
2023-03-21T23:05:12.633Z,9.40
2023-03-21T23:10:23.019Z,9.40
2023-03-21T23:15:27.815Z,9.50
2023-03-21T23:20:31.247Z,9.50
2023-03-21T23:25:39.032Z,9.50
2023-03-21T23:30:45.532Z,9.40
2023-03-21T23:35:48.821Z,9.30
2023-03-21T23:40:52.132Z,9.10
2023-03-21T23:45:59.916Z,9.00
2023-03-21T23:51:03.194Z,8.90
2023-03-21T23:56:12.223Z,8.90
